sensor_id;sensor_type;location;lat;lon;timestamp;pressure;altitude;pressure_sealevel;temperature;humidity
74893;BME280;63446;56.272;43.922;2022-11-03T00:01:54;100181.44;;;3.52;72.58
74893;BME280;63446;56.272;43.922;2022-11-03T00:04:21;100186.66;;;3.52;72.73
74893;BME280;63446;56.272;43.922;2022-11-03T00:06:52;100193.47;;;3.53;72.61
74893;BME280;63446;56.272;43.922;2022-11-03T00:09:19;100196.88;;;3.53;72.62
74893;BME280;63446;56.272;43.922;2022-11-03T00:11:50;100188.03;;;3.54;72.61
74893;BME280;63446;56.272;43.922;2022-11-03T00:14:16;100189.03;;;3.53;72.64
74893;BME280;63446;56.272;43.922;2022-11-03T00:16:48;100187.81;;;3.56;72.47
74893;BME280;63446;56.272;43.922;2022-11-03T00:19:14;100182.59;;;3.56;72.67
74893;BME280;63446;56.272;43.922;2022-11-03T00:21:45;100182.34;;;3.57;72.69
74893;BME280;63446;56.272;43.922;2022-11-03T00:24:12;100183.72;;;3.60;72.56
74893;BME280;63446;56.272;43.922;2022-11-03T00:26:38;100182.69;;;3.61;72.52
74893;BME280;63446;56.272;43.922;2022-11-03T00:29:09;100178.50;;;3.60;72.64
74893;BME280;63446;56.272;43.922;2022-11-03T00:31:39;100173.06;;;3.61;72.59
74893;BME280;63446;56.272;43.922;2022-11-03T00:34:06;100184.31;;;3.62;72.52
74893;BME280;63446;56.272;43.922;2022-11-03T00:36:37;100185.09;;;3.62;72.53
74893;BME280;63446;56.272;43.922;2022-11-03T00:39:04;100182.69;;;3.61;72.33
74893;BME280;63446;56.272;43.922;2022-11-03T00:41:30;100187.91;;;3.61;72.54
74893;BME280;63446;56.272;43.922;2022-11-03T00:43:57;100182.94;;;3.59;72.65
74893;BME280;63446;56.272;43.922;2022-11-03T00:46:24;100178.16;;;3.56;72.58
74893;BME280;63446;56.272;43.922;2022-11-03T00:48:51;100175.44;;;3.51;72.70
74893;BME280;63446;56.272;43.922;2022-11-03T00:51:22;100177.13;;;3.46;72.84
74893;BME280;63446;56.272;43.922;2022-11-03T00:53:52;100179.16;;;3.43;73.17
74893;BME280;63446;56.272;43.922;2022-11-03T00:56:29;100182.81;;;3.42;73.53
74893;BME280;63446;56.272;43.922;2022-11-03T00:58:57;100182.81;;;3.42;73.63
74893;BME280;63446;56.272;43.922;2022-11-03T01:01:27;100189.03;;;3.41;73.75
74893;BME280;63446;56.272;43.922;2022-11-03T01:03:56;100183.25;;;3.39;73.56
74893;BME280;63446;56.272;43.922;2022-11-03T01:06:43;100189.72;;;3.37;73.67
74893;BME280;63446;56.272;43.922;2022-11-03T01:09:21;100184.72;;;3.35;73.81
74893;BME280;63446;56.272;43.922;2022-11-03T01:14:29;100188.56;;;3.33;74.04
74893;BME280;63446;56.272;43.922;2022-11-03T01:16:56;100187.00;;;3.32;74.06
74893;BME280;63446;56.272;43.922;2022-11-03T01:19:23;100187.78;;;3.32;74.16
74893;BME280;63446;56.272;43.922;2022-11-03T01:21:53;100191.97;;;3.33;74.34
74893;BME280;63446;56.272;43.922;2022-11-03T01:24:19;100184.94;;;3.34;74.46
74893;BME280;63446;56.272;43.922;2022-11-03T01:26:45;100199.59;;;3.35;74.54
74893;BME280;63446;56.272;43.922;2022-11-03T01:29:11;100206.41;;;3.36;74.52
74893;BME280;63446;56.272;43.922;2022-11-03T01:31:37;100200.97;;;3.37;74.52
74893;BME280;63446;56.272;43.922;2022-11-03T01:34:03;100214.03;;;3.37;74.74
74893;BME280;63446;56.272;43.922;2022-11-03T01:36:28;100203.81;;;3.36;74.60
74893;BME280;63446;56.272;43.922;2022-11-03T01:38:55;100213.03;;;3.38;74.80
74893;BME280;63446;56.272;43.922;2022-11-03T01:41:24;100216.63;;;3.37;74.69
74893;BME280;63446;56.272;43.922;2022-11-03T01:44:22;100201.97;;;3.36;74.83
74893;BME280;63446;56.272;43.922;2022-11-03T01:46:54;100204.16;;;3.39;74.72
74893;BME280;63446;56.272;43.922;2022-11-03T01:54:40;100206.09;;;3.44;74.78
74893;BME280;63446;56.272;43.922;2022-11-03T01:57:12;100202.44;;;3.45;74.82
74893;BME280;63446;56.272;43.922;2022-11-03T01:59:38;100194.16;;;3.48;74.61
74893;BME280;63446;56.272;43.922;2022-11-03T02:02:04;100195.75;;;3.49;74.78
74893;BME280;63446;56.272;43.922;2022-11-03T02:04:32;100199.97;;;3.50;74.66
74893;BME280;63446;56.272;43.922;2022-11-03T02:07:14;100193.94;;;3.50;74.62
74893;BME280;63446;56.272;43.922;2022-11-03T02:09:41;100191.09;;;3.51;74.64
74893;BME280;63446;56.272;43.922;2022-11-03T02:12:07;100187.91;;;3.49;74.65
74893;BME280;63446;56.272;43.922;2022-11-03T02:14:42;100193.28;;;3.54;74.44
74893;BME280;63446;56.272;43.922;2022-11-03T02:17:10;100194.28;;;3.53;74.45
74893;BME280;63446;56.272;43.922;2022-11-03T02:27:30;100195.66;;;3.56;74.60
74893;BME280;63446;56.272;43.922;2022-11-03T02:29:56;100201.66;;;3.56;74.77
74893;BME280;63446;56.272;43.922;2022-11-03T02:32:25;100208.72;;;3.56;74.65
74893;BME280;63446;56.272;43.922;2022-11-03T02:35:04;100209.28;;;3.58;74.52
74893;BME280;63446;56.272;43.922;2022-11-03T02:37:41;100209.28;;;3.58;74.48
74893;BME280;63446;56.272;43.922;2022-11-03T02:40:14;100210.09;;;3.58;74.35
74893;BME280;63446;56.272;43.922;2022-11-03T02:42:45;100210.28;;;3.57;74.40
74893;BME280;63446;56.272;43.922;2022-11-03T02:45:16;100203.72;;;3.54;74.29
74893;BME280;63446;56.272;43.922;2022-11-03T02:47:45;100196.88;;;3.53;74.32
74893;BME280;63446;56.272;43.922;2022-11-03T02:50:12;100202.69;;;3.55;74.27
74893;BME280;63446;56.272;43.922;2022-11-03T02:52:43;100200.88;;;3.56;74.36
74893;BME280;63446;56.272;43.922;2022-11-03T03:00:58;100204.97;;;3.52;74.19
74893;BME280;63446;56.272;43.922;2022-11-03T03:03:30;100213.81;;;3.51;74.14
74893;BME280;63446;56.272;43.922;2022-11-03T03:06:02;100209.59;;;3.50;74.09
74893;BME280;63446;56.272;43.922;2022-11-03T03:08:31;100203.81;;;3.48;74.18
74893;BME280;63446;56.272;43.922;2022-11-03T03:10:59;100216.09;;;3.47;74.29
74893;BME280;63446;56.272;43.922;2022-11-03T03:13:27;100220.28;;;3.48;74.21
74893;BME280;63446;56.272;43.922;2022-11-03T03:18:34;100216.09;;;3.47;74.11
74893;BME280;63446;56.272;43.922;2022-11-03T03:21:11;100222.34;;;3.46;74.29
74893;BME280;63446;56.272;43.922;2022-11-03T03:23:44;100226.19;;;3.43;74.27
74893;BME280;63446;56.272;43.922;2022-11-03T03:26:27;100208.69;;;3.44;74.29
74893;BME280;63446;56.272;43.922;2022-11-03T03:29:01;100221.53;;;3.46;74.34
74893;BME280;63446;56.272;43.922;2022-11-03T03:31:32;100227.56;;;3.46;74.30
74893;BME280;63446;56.272;43.922;2022-11-03T03:34:00;100221.09;;;3.49;74.31
74893;BME280;63446;56.272;43.922;2022-11-03T03:36:27;100214.81;;;3.50;74.27
74893;BME280;63446;56.272;43.922;2022-11-03T03:39:05;100209.84;;;3.48;74.18
74893;BME280;63446;56.272;43.922;2022-11-03T03:41:33;100217.22;;;3.51;74.18
74893;BME280;63446;56.272;43.922;2022-11-03T03:44:05;100212.56;;;3.53;74.29
74893;BME280;63446;56.272;43.922;2022-11-03T03:46:40;100207.34;;;3.53;74.26
74893;BME280;63446;56.272;43.922;2022-11-03T03:49:08;100198.94;;;3.51;74.25
74893;BME280;63446;56.272;43.922;2022-11-03T03:51:33;100208.16;;;3.54;74.21
74893;BME280;63446;56.272;43.922;2022-11-03T03:54:00;100209.75;;;3.55;74.21
74893;BME280;63446;56.272;43.922;2022-11-03T03:56:29;100205.06;;;3.57;74.24
74893;BME280;63446;56.272;43.922;2022-11-03T03:58:57;100210.28;;;3.57;74.24
74893;BME280;63446;56.272;43.922;2022-11-03T04:01:24;100209.28;;;3.58;74.21
74893;BME280;63446;56.272;43.922;2022-11-03T04:03:49;100211.91;;;3.58;74.24
74893;BME280;63446;56.272;43.922;2022-11-03T04:06:15;100220.31;;;3.60;74.05
74893;BME280;63446;56.272;43.922;2022-11-03T04:08:41;100208.03;;;3.60;74.13
74893;BME280;63446;56.272;43.922;2022-11-03T04:11:07;100198.38;;;3.61;74.04
74893;BME280;63446;56.272;43.922;2022-11-03T04:13:51;100213.84;;;3.62;74.00
74893;BME280;63446;56.272;43.922;2022-11-03T04:16:36;100210.19;;;3.63;74.08
74893;BME280;63446;56.272;43.922;2022-11-03T04:19:20;100219.84;;;3.63;74.09
74893;BME280;63446;56.272;43.922;2022-11-03T04:22:29;100213.59;;;3.64;73.92
74893;BME280;63446;56.272;43.922;2022-11-03T04:24:56;100209.41;;;3.63;73.86
74893;BME280;63446;56.272;43.922;2022-11-03T04:27:36;100215.88;;;3.60;73.95
74893;BME280;63446;56.272;43.922;2022-11-03T04:32:34;100218.28;;;3.62;73.83
74893;BME280;63446;56.272;43.922;2022-11-03T04:35:10;100222.72;;;3.61;73.98
74893;BME280;63446;56.272;43.922;2022-11-03T04:37:39;100232.94;;;3.63;73.93
74893;BME280;63446;56.272;43.922;2022-11-03T04:40:12;100223.50;;;3.62;74.09
74893;BME280;63446;56.272;43.922;2022-11-03T04:42:38;100233.38;;;3.72;73.93
74893;BME280;63446;56.272;43.922;2022-11-03T04:45:33;100243.63;;;3.73;74.05
74893;BME280;63446;56.272;43.922;2022-11-03T04:48:01;100238.94;;;3.75;73.79
74893;BME280;63446;56.272;43.922;2022-11-03T04:50:34;100238.75;;;3.77;73.87
74893;BME280;63446;56.272;43.922;2022-11-03T04:53:00;100237.47;;;3.79;73.89
74893;BME280;63446;56.272;43.922;2022-11-03T04:55:26;100236.25;;;3.82;73.91
74893;BME280;63446;56.272;43.922;2022-11-03T04:58:05;100230.78;;;3.83;73.93
74893;BME280;63446;56.272;43.922;2022-11-03T05:00:32;100230.09;;;3.88;73.91
74893;BME280;63446;56.272;43.922;2022-11-03T05:02:57;100222.81;;;3.90;73.79
74893;BME280;63446;56.272;43.922;2022-11-03T05:05:25;100233.03;;;3.91;73.70
74893;BME280;63446;56.272;43.922;2022-11-03T05:07:53;100231.00;;;3.94;73.72
74893;BME280;63446;56.272;43.922;2022-11-03T05:10:23;100231.56;;;3.96;73.62
74893;BME280;63446;56.272;43.922;2022-11-03T05:12:50;100230.56;;;3.97;73.67
74893;BME280;63446;56.272;43.922;2022-11-03T05:17:58;100227.47;;;4.00;73.64
74893;BME280;63446;56.272;43.922;2022-11-03T05:20:33;100227.25;;;4.01;73.62
74893;BME280;63446;56.272;43.922;2022-11-03T05:23:00;100226.22;;;4.02;73.74
74893;BME280;63446;56.272;43.922;2022-11-03T05:25:41;100226.81;;;4.04;73.77
74893;BME280;63446;56.272;43.922;2022-11-03T05:28:18;100223.06;;;4.12;73.65
74893;BME280;63446;56.272;43.922;2022-11-03T05:30:47;100231.00;;;4.17;73.66
74893;BME280;63446;56.272;43.922;2022-11-03T05:33:30;100226.34;;;4.19;73.66
74893;BME280;63446;56.272;43.922;2022-11-03T05:35:59;100219.84;;;4.22;73.54
74893;BME280;63446;56.272;43.922;2022-11-03T05:38:28;100220.75;;;4.27;73.60
74893;BME280;63446;56.272;43.922;2022-11-03T05:40:55;100231.22;;;4.27;73.43
74893;BME280;63446;56.272;43.922;2022-11-03T05:43:20;100233.94;;;4.32;73.41
74893;BME280;63446;56.272;43.922;2022-11-03T05:45:49;100241.09;;;4.37;73.42
74893;BME280;63446;56.272;43.922;2022-11-03T05:48:33;100228.59;;;4.39;73.22
74893;BME280;63446;56.272;43.922;2022-11-03T05:51:02;100227.09;;;4.43;73.31
74893;BME280;63446;56.272;43.922;2022-11-03T05:53:36;100231.06;;;4.46;73.10
74893;BME280;63446;56.272;43.922;2022-11-03T05:56:05;100223.78;;;4.48;73.00
74893;BME280;63446;56.272;43.922;2022-11-03T05:58:39;100230.13;;;4.52;72.82
74893;BME280;63446;56.272;43.922;2022-11-03T06:03:44;100230.22;;;4.57;72.79
74893;BME280;63446;56.272;43.922;2022-11-03T06:06:24;100234.22;;;4.59;72.58
74893;BME280;63446;56.272;43.922;2022-11-03T06:08:51;100234.78;;;4.61;72.62
74893;BME280;63446;56.272;43.922;2022-11-03T06:11:26;100236.91;;;4.64;72.64
74893;BME280;63446;56.272;43.922;2022-11-03T06:13:54;100234.44;;;4.70;72.63
74893;BME280;63446;56.272;43.922;2022-11-03T06:18:59;100230.31;;;4.74;72.27
74893;BME280;63446;56.272;43.922;2022-11-03T06:21:27;100232.94;;;4.74;72.52
74893;BME280;63446;56.272;43.922;2022-11-03T06:23:53;100234.75;;;4.73;72.52
74893;BME280;63446;56.272;43.922;2022-11-03T06:26:23;100240.78;;;4.74;72.21
74893;BME280;63446;56.272;43.922;2022-11-03T06:28:50;100232.59;;;4.70;72.40
74893;BME280;63446;56.272;43.922;2022-11-03T06:31:23;100232.03;;;4.68;72.20
74893;BME280;63446;56.272;43.922;2022-11-03T06:33:50;100240.91;;;4.67;72.09
74893;BME280;63446;56.272;43.922;2022-11-03T06:36:22;100235.09;;;4.65;72.16
74893;BME280;63446;56.272;43.922;2022-11-03T06:38:53;100237.72;;;4.65;72.33
74893;BME280;63446;56.272;43.922;2022-11-03T06:41:26;100234.63;;;4.68;72.23
74893;BME280;63446;56.272;43.922;2022-11-03T06:43:52;100238.88;;;4.69;72.19
74893;BME280;63446;56.272;43.922;2022-11-03T06:46:21;100239.41;;;4.71;72.17
74893;BME280;63446;56.272;43.922;2022-11-03T06:48:49;100239.16;;;4.73;72.20
74893;BME280;63446;56.272;43.922;2022-11-03T06:51:20;100241.00;;;4.72;71.89
74893;BME280;63446;56.272;43.922;2022-11-03T06:53:47;100240.44;;;4.70;72.03
74893;BME280;63446;56.272;43.922;2022-11-03T06:56:15;100245.44;;;4.72;71.98
74893;BME280;63446;56.272;43.922;2022-11-03T06:58:45;100251.72;;;4.71;71.94
74893;BME280;63446;56.272;43.922;2022-11-03T07:01:18;100248.53;;;4.69;71.89
74893;BME280;63446;56.272;43.922;2022-11-03T07:03:51;100254.56;;;4.69;71.88
74893;BME280;63446;56.272;43.922;2022-11-03T07:06:33;100244.41;;;4.73;71.83
74893;BME280;63446;56.272;43.922;2022-11-03T07:09:03;100256.50;;;4.74;71.81
74893;BME280;63446;56.272;43.922;2022-11-03T07:11:34;100249.19;;;4.76;71.72
74893;BME280;63446;56.272;43.922;2022-11-03T07:14:13;100253.41;;;4.77;71.73
74893;BME280;63446;56.272;43.922;2022-11-03T07:16:42;100253.50;;;4.82;71.68
74893;BME280;63446;56.272;43.922;2022-11-03T07:19:31;100257.16;;;4.81;71.75
74893;BME280;63446;56.272;43.922;2022-11-03T07:22:00;100260.66;;;4.86;71.62
74893;BME280;63446;56.272;43.922;2022-11-03T07:24:47;100265.66;;;4.88;71.61
74893;BME280;63446;56.272;43.922;2022-11-03T07:27:30;100270.22;;;4.93;71.46
74893;BME280;63446;56.272;43.922;2022-11-03T07:30:09;100261.31;;;4.94;71.41
74893;BME280;63446;56.272;43.922;2022-11-03T07:32:38;100257.66;;;4.95;71.47
74893;BME280;63446;56.272;43.922;2022-11-03T07:37:42;100263.81;;;5.00;71.38
74893;BME280;63446;56.272;43.922;2022-11-03T07:40:13;100262.44;;;4.98;71.36
74893;BME280;63446;56.272;43.922;2022-11-03T07:42:41;100277.22;;;5.04;71.21
74893;BME280;63446;56.272;43.922;2022-11-03T07:48:00;100273.78;;;5.03;71.44
74893;BME280;63446;56.272;43.922;2022-11-03T07:50:26;100272.22;;;5.02;71.28
74893;BME280;63446;56.272;43.922;2022-11-03T07:52:53;100274.94;;;5.07;71.26
74893;BME280;63446;56.272;43.922;2022-11-03T07:55:19;100281.53;;;5.10;71.38
74893;BME280;63446;56.272;43.922;2022-11-03T07:57:45;100274.22;;;5.12;71.09
74893;BME280;63446;56.272;43.922;2022-11-03T08:00:14;100278.44;;;5.13;71.02
74893;BME280;63446;56.272;43.922;2022-11-03T08:02:49;100274.78;;;5.14;71.18
74893;BME280;63446;56.272;43.922;2022-11-03T08:05:16;100275.56;;;5.14;70.99
74893;BME280;63446;56.272;43.922;2022-11-03T08:07:42;100275.56;;;5.14;71.07
74893;BME280;63446;56.272;43.922;2022-11-03T08:10:08;100281.38;;;5.17;71.03
74893;BME280;63446;56.272;43.922;2022-11-03T08:12:34;100279.81;;;5.16;71.02
74893;BME280;63446;56.272;43.922;2022-11-03T08:15:00;100289.78;;;5.19;71.07
74893;BME280;63446;56.272;43.922;2022-11-03T08:17:26;100293.78;;;5.21;70.82
74893;BME280;63446;56.272;43.922;2022-11-03T08:19:52;100283.75;;;5.18;70.87
74893;BME280;63446;56.272;43.922;2022-11-03T08:22:18;100287.50;;;5.22;70.82
74893;BME280;63446;56.272;43.922;2022-11-03T08:24:43;100292.75;;;5.22;70.64
74893;BME280;63446;56.272;43.922;2022-11-03T08:27:09;100289.56;;;5.20;70.58
74893;BME280;63446;56.272;43.922;2022-11-03T08:29:35;100287.75;;;5.21;70.72
74893;BME280;63446;56.272;43.922;2022-11-03T08:32:01;100291.72;;;5.23;70.89
74893;BME280;63446;56.272;43.922;2022-11-03T08:34:26;100290.69;;;5.24;70.84
74893;BME280;63446;56.272;43.922;2022-11-03T08:36:52;100302.28;;;5.28;70.60
74893;BME280;63446;56.272;43.922;2022-11-03T08:39:18;100291.56;;;5.30;70.67
74893;BME280;63446;56.272;43.922;2022-11-03T08:41:44;100296.00;;;5.29;70.55
74893;BME280;63446;56.272;43.922;2022-11-03T08:44:10;100299.44;;;5.30;70.48
74893;BME280;63446;56.272;43.922;2022-11-03T08:46:36;100295.47;;;5.27;70.55
74893;BME280;63446;56.272;43.922;2022-11-03T08:49:02;100309.13;;;5.29;70.54
74893;BME280;63446;56.272;43.922;2022-11-03T08:51:27;100296.81;;;5.30;70.56
74893;BME280;63446;56.272;43.922;2022-11-03T08:53:53;100304.19;;;5.33;70.56
74893;BME280;63446;56.272;43.922;2022-11-03T08:56:20;100303.97;;;5.34;70.36
74893;BME280;63446;56.272;43.922;2022-11-03T08:58:46;100312.63;;;5.35;70.44
74893;BME280;63446;56.272;43.922;2022-11-03T09:01:13;100313.19;;;5.37;70.49
74893;BME280;63446;56.272;43.922;2022-11-03T09:03:39;100303.75;;;5.36;70.52
74893;BME280;63446;56.272;43.922;2022-11-03T09:06:07;100299.88;;;5.38;70.31
74893;BME280;63446;56.272;43.922;2022-11-03T09:08:32;100303.50;;;5.37;70.36
74893;BME280;63446;56.272;43.922;2022-11-03T09:10:58;100309.31;;;5.39;70.34
74893;BME280;63446;56.272;43.922;2022-11-03T09:13:24;100312.72;;;5.40;70.30
74893;BME280;63446;56.272;43.922;2022-11-03T09:15:50;100314.56;;;5.39;70.20
74893;BME280;63446;56.272;43.922;2022-11-03T09:18:16;100311.13;;;5.39;70.29
74893;BME280;63446;56.272;43.922;2022-11-03T09:20:42;100313.50;;;5.41;70.35
74893;BME280;63446;56.272;43.922;2022-11-03T09:23:07;100315.91;;;5.42;70.40
74893;BME280;63446;56.272;43.922;2022-11-03T09:25:33;100314.63;;;5.45;70.37
74893;BME280;63446;56.272;43.922;2022-11-03T09:27:59;100313.38;;;5.47;70.27
74893;BME280;63446;56.272;43.922;2022-11-03T09:30:24;100308.34;;;5.46;70.12
74893;BME280;63446;56.272;43.922;2022-11-03T09:32:50;100308.34;;;5.46;70.17
74893;BME280;63446;56.272;43.922;2022-11-03T09:35:17;100317.25;;;5.45;70.15
74893;BME280;63446;56.272;43.922;2022-11-03T09:37:42;100320.66;;;5.45;70.15
74893;BME280;63446;56.272;43.922;2022-11-03T09:40:10;100317.03;;;5.46;70.23
74893;BME280;63446;56.272;43.922;2022-11-03T09:42:38;100317.81;;;5.47;70.11
74893;BME280;63446;56.272;43.922;2022-11-03T09:45:07;100321.00;;;5.49;70.14
74893;BME280;63446;56.272;43.922;2022-11-03T09:47:35;100321.78;;;5.49;70.15
74893;BME280;63446;56.272;43.922;2022-11-03T09:50:04;100316.31;;;5.51;70.10
74893;BME280;63446;56.272;43.922;2022-11-03T09:52:30;100319.72;;;5.51;70.06
74893;BME280;63446;56.272;43.922;2022-11-03T09:54:57;100310.50;;;5.49;70.12
74893;BME280;63446;56.272;43.922;2022-11-03T09:57:27;100327.84;;;5.50;70.07
74893;BME280;63446;56.272;43.922;2022-11-03T09:59:54;100322.50;;;5.45;70.06
74893;BME280;63446;56.272;43.922;2022-11-03T10:02:21;100323.28;;;5.45;70.06
74893;BME280;63446;56.272;43.922;2022-11-03T10:04:50;100325.13;;;5.45;69.99
74893;BME280;63446;56.272;43.922;2022-11-03T10:07:16;100323.53;;;5.44;69.94
74893;BME280;63446;56.272;43.922;2022-11-03T10:09:48;100314.31;;;5.41;69.96
74893;BME280;63446;56.272;43.922;2022-11-03T10:12:14;100324.56;;;5.43;70.12
74893;BME280;63446;56.272;43.922;2022-11-03T10:14:42;100326.94;;;5.44;70.13
74893;BME280;63446;56.272;43.922;2022-11-03T10:17:28;100311.78;;;5.46;70.15
74893;BME280;63446;56.272;43.922;2022-11-03T10:19:57;100309.72;;;5.48;70.17
74893;BME280;63446;56.272;43.922;2022-11-03T10:22:23;100309.72;;;5.48;70.07
74893;BME280;63446;56.272;43.922;2022-11-03T10:28:19;100316.53;;;5.49;70.07
74893;BME280;63446;56.272;43.922;2022-11-03T10:31:01;100325.44;;;5.48;70.06
74893;BME280;63446;56.272;43.922;2022-11-03T10:33:39;100326.22;;;5.49;70.01
74893;BME280;63446;56.272;43.922;2022-11-03T10:36:22;100326.69;;;5.46;70.07
74893;BME280;63446;56.272;43.922;2022-11-03T10:38:48;100332.44;;;5.43;70.06
74893;BME280;63446;56.272;43.922;2022-11-03T10:44:18;100325.03;;;5.39;70.20
74893;BME280;63446;56.272;43.922;2022-11-03T10:46:57;100332.66;;;5.41;70.20
74893;BME280;63446;56.272;43.922;2022-11-03T10:49:24;100332.66;;;5.41;70.18
74893;BME280;63446;56.272;43.922;2022-11-03T10:51:51;100328.69;;;5.38;70.21
74893;BME280;63446;56.272;43.922;2022-11-03T10:54:20;100327.06;;;5.37;70.17
74893;BME280;63446;56.272;43.922;2022-11-03T10:56:48;100328.13;;;5.36;70.26
74893;BME280;63446;56.272;43.922;2022-11-03T10:59:23;100330.28;;;5.39;70.29
74893;BME280;63446;56.272;43.922;2022-11-03T11:01:51;100326.63;;;5.41;70.33
74893;BME280;63446;56.272;43.922;2022-11-03T11:04:18;100330.03;;;5.41;70.41
74893;BME280;63446;56.272;43.922;2022-11-03T11:06:46;100328.19;;;5.42;70.38
74893;BME280;63446;56.272;43.922;2022-11-03T11:09:19;100316.91;;;5.41;70.42
74893;BME280;63446;56.272;43.922;2022-11-03T11:12:14;100315.09;;;5.42;70.53
74893;BME280;63446;56.272;43.922;2022-11-03T11:14:56;100318.28;;;5.44;70.37
74893;BME280;63446;56.272;43.922;2022-11-03T11:17:39;100320.91;;;5.44;70.35
74893;BME280;63446;56.272;43.922;2022-11-03T11:22:44;100322.16;;;5.41;70.38
74893;BME280;63446;56.272;43.922;2022-11-03T11:25:10;100325.03;;;5.39;70.42
74893;BME280;63446;56.272;43.922;2022-11-03T11:30:05;100328.69;;;5.38;70.44
74893;BME280;63446;56.272;43.922;2022-11-03T11:35:01;100335.97;;;5.36;70.42
74893;BME280;63446;56.272;43.922;2022-11-03T11:39:55;100339.63;;;5.35;70.47
74893;BME280;63446;56.272;43.922;2022-11-03T11:42:21;100340.66;;;5.34;70.60
74893;BME280;63446;56.272;43.922;2022-11-03T11:44:48;100337.47;;;5.32;70.52
74893;BME280;63446;56.272;43.922;2022-11-03T11:58:04;100350.81;;;5.31;70.63
74893;BME280;63446;56.272;43.922;2022-11-03T12:00:33;100347.28;;;5.25;70.58
74893;BME280;63446;56.272;43.922;2022-11-03T12:03:03;100353.00;;;5.22;70.45
74893;BME280;63446;56.272;43.922;2022-11-03T12:05:32;100352.44;;;5.20;70.53
74893;BME280;63446;56.272;43.922;2022-11-03T12:07:59;100360.78;;;5.17;70.60
74893;BME280;63446;56.272;43.922;2022-11-03T12:10:29;100352.38;;;5.15;70.61
74893;BME280;63446;56.272;43.922;2022-11-03T12:12:58;100358.41;;;5.16;70.59
74893;BME280;63446;56.272;43.922;2022-11-03T12:15:56;100362.03;;;5.14;70.74
74893;BME280;63446;56.272;43.922;2022-11-03T12:21:00;100362.84;;;5.15;70.63
74893;BME280;63446;56.272;43.922;2022-11-03T12:23:36;100364.63;;;5.14;70.64
74893;BME280;63446;56.272;43.922;2022-11-03T12:26:04;100354.88;;;5.10;70.59
74893;BME280;63446;56.272;43.922;2022-11-03T12:28:31;100354.88;;;5.10;70.72
74893;BME280;63446;56.272;43.922;2022-11-03T12:30:58;100365.59;;;5.08;70.91
74893;BME280;63446;56.272;43.922;2022-11-03T12:33:25;100367.41;;;5.08;70.90
74893;BME280;63446;56.272;43.922;2022-11-03T12:35:52;100371.03;;;5.07;70.86
74893;BME280;63446;56.272;43.922;2022-11-03T12:38:18;100373.44;;;5.08;71.10
74893;BME280;63446;56.272;43.922;2022-11-03T12:40:43;100376.06;;;5.08;71.04
74893;BME280;63446;56.272;43.922;2022-11-03T12:43:10;100375.03;;;5.09;71.00
74893;BME280;63446;56.272;43.922;2022-11-03T12:45:35;100379.22;;;5.10;70.95
74893;BME280;63446;56.272;43.922;2022-11-03T12:48:02;100386.28;;;5.10;70.99
74893;BME280;63446;56.272;43.922;2022-11-03T12:50:27;100382.09;;;5.09;70.92
74893;BME280;63446;56.272;43.922;2022-11-03T12:52:53;100382.09;;;5.09;70.91
74893;BME280;63446;56.272;43.922;2022-11-03T12:55:19;100385.75;;;5.08;70.95
74893;BME280;63446;56.272;43.922;2022-11-03T12:57:45;100385.97;;;5.06;70.98
74893;BME280;63446;56.272;43.922;2022-11-03T13:00:11;100397.22;;;5.07;71.11
74893;BME280;63446;56.272;43.922;2022-11-03T13:02:37;100397.22;;;5.07;71.03
74893;BME280;63446;56.272;43.922;2022-11-03T13:05:05;100406.72;;;5.08;71.12
74893;BME280;63446;56.272;43.922;2022-11-03T13:07:31;100404.88;;;5.08;71.15
74893;BME280;63446;56.272;43.922;2022-11-03T13:09:57;100407.50;;;5.08;71.05
74893;BME280;63446;56.272;43.922;2022-11-03T13:12:23;100405.09;;;5.07;70.97
74893;BME280;63446;56.272;43.922;2022-11-03T13:15:01;100409.78;;;5.05;71.09
74893;BME280;63446;56.272;43.922;2022-11-03T13:17:29;100410.22;;;5.02;71.07
74893;BME280;63446;56.272;43.922;2022-11-03T13:19:55;100412.84;;;5.02;71.11
74893;BME280;63446;56.272;43.922;2022-11-03T13:22:21;100412.84;;;5.02;71.29
74893;BME280;63446;56.272;43.922;2022-11-03T13:24:46;100420.47;;;5.03;71.28
74893;BME280;63446;56.272;43.922;2022-11-03T13:27:12;100416.06;;;5.04;71.30
74893;BME280;63446;56.272;43.922;2022-11-03T13:29:38;100426.53;;;5.04;71.28
74893;BME280;63446;56.272;43.922;2022-11-03T13:32:05;100425.50;;;5.05;71.33
74893;BME280;63446;56.272;43.922;2022-11-03T13:34:32;100427.09;;;5.06;71.28
74893;BME280;63446;56.272;43.922;2022-11-03T13:36:58;100421.84;;;5.06;71.30
74893;BME280;63446;56.272;43.922;2022-11-03T13:39:23;100422.09;;;5.04;71.41
74893;BME280;63446;56.272;43.922;2022-11-03T13:41:49;100428.13;;;5.05;71.25
74893;BME280;63446;56.272;43.922;2022-11-03T13:44:15;100419.47;;;5.04;71.46
74893;BME280;63446;56.272;43.922;2022-11-03T13:46:41;100430.50;;;5.06;71.49
74893;BME280;63446;56.272;43.922;2022-11-03T13:49:07;100433.13;;;5.06;71.52
74893;BME280;63446;56.272;43.922;2022-11-03T13:51:32;100430.28;;;5.08;71.46
74893;BME280;63446;56.272;43.922;2022-11-03T13:53:59;100433.44;;;5.10;71.34
74893;BME280;63446;56.272;43.922;2022-11-03T13:56:25;100437.09;;;5.09;71.32
74893;BME280;63446;56.272;43.922;2022-11-03T13:58:50;100431.06;;;5.08;71.37
74893;BME280;63446;56.272;43.922;2022-11-03T14:01:16;100434.47;;;5.09;71.26
74893;BME280;63446;56.272;43.922;2022-11-03T14:03:42;100440.75;;;5.08;71.38
74893;BME280;63446;56.272;43.922;2022-11-03T14:06:07;100436.31;;;5.08;71.39
74893;BME280;63446;56.272;43.922;2022-11-03T14:08:34;100446.53;;;5.10;71.45
74893;BME280;63446;56.272;43.922;2022-11-03T14:11:00;100446.00;;;5.08;71.49
74893;BME280;63446;56.272;43.922;2022-11-03T14:13:45;100450.66;;;5.06;71.51